KBNO/BNO METAR and TAF weather

Enter ICAO airport designator
Station Type Date Time Source
KBNO METAR 2022/05/26 04:53 UTC NOAA

KBNO 260453Z AUTO 32006KT 10SM CLR 15/01 A2998 RMK AO2 SLP125 T01500011


Station Type Date Time Source
KBNO Decoded METAR 2022/05/26 04:53 UTC NOAA

BURNS MUNICIPAL AIRPORT, OR, United States (KBNO) 43-36N 118-57W 1264M
May 26, 2022 - 12:53 AM EDT / 2022.05.26 0453 UTC
Wind: from the NW (320 degrees) at 7 MPH (6 KT):0
Visibility: 10 mile(s):0
Sky conditions: clear
Temperature: 59.0 F (15.0 C)
Dew Point: 34.0 F (1.1 C)
Relative Humidity: 38%
Pressure (altimeter): 29.98 in. Hg (1015 hPa)
ob: KBNO 260453Z AUTO 32006KT 10SM CLR 15/01 A2998 RMK AO2 SLP125 T01500011
cycle: 5

Station Type Date Time Source
KBNO TAF 2022/05/26 06:22 UTC NOAA

TAF KBNO 260520Z 2606/2706 VRB06KT P6SM SCT200
FM262000 26015G25KT P6SM VCTS BKN100CB
FM270000 27015G25KT P6SM VCTS BKN100CB

Example: see airport list